createdAt,value
2022-09-27T00:02:25.260Z,11.30
2022-09-27T00:05:10.882Z,11.25
2022-09-27T00:07:56.954Z,11.28
2022-09-27T00:10:43.509Z,11.27
2022-09-27T00:13:30.377Z,11.24
2022-09-27T00:16:16.361Z,11.28
2022-09-27T00:19:08.527Z,11.26
2022-09-27T00:21:54.448Z,11.23
2022-09-27T00:24:39.895Z,11.26
2022-09-27T00:27:26.656Z,11.21
2022-09-27T00:30:13.470Z,11.27
2022-09-27T00:32:59.179Z,11.13
2022-09-27T00:35:44.816Z,11.23
2022-09-27T00:38:30.002Z,11.16
2022-09-27T00:41:19.481Z,11.29
2022-09-27T00:44:28.471Z,11.37
2022-09-27T00:47:25.863Z,11.39
2022-09-27T00:50:42.398Z,11.27
2022-09-27T00:53:36.670Z,11.27
2022-09-27T00:56:28.002Z,11.26
2022-09-27T00:59:22.976Z,11.21
2022-09-27T01:02:08.598Z,11.32
2022-09-27T01:04:55.692Z,11.09
2022-09-27T01:07:41.748Z,11.16
2022-09-27T01:10:39.485Z,11.12
2022-09-27T01:13:40.495Z,11.27
2022-09-27T01:16:54.358Z,11.27
2022-09-27T01:22:34.471Z,11.25
2022-09-27T01:25:50.465Z,11.07
2022-09-27T01:29:10.389Z,11.23
2022-09-27T01:32:02.530Z,11.26
2022-09-27T01:35:02.429Z,11.17
2022-09-27T01:38:03.246Z,11.24
2022-09-27T01:41:01.716Z,11.10
2022-09-27T01:43:55.138Z,11.23
2022-09-27T01:46:49.813Z,11.34
2022-09-27T01:49:42.159Z,11.36
2022-09-27T01:52:40.959Z,11.28
2022-09-27T01:55:31.324Z,11.17
2022-09-27T01:58:42.552Z,11.36
2022-09-27T02:01:31.121Z,11.35
2022-09-27T02:04:22.362Z,11.31
2022-09-27T02:07:29.958Z,11.31
2022-09-27T02:10:21.780Z,11.22
2022-09-27T02:13:33.401Z,11.23
2022-09-27T02:16:39.960Z,11.28
2022-09-27T02:19:51.013Z,11.27
2022-09-27T02:22:42.349Z,11.26
2022-09-27T02:25:55.265Z,11.36
2022-09-27T02:28:50.191Z,11.28
2022-09-27T02:31:35.826Z,11.25
2022-09-27T02:34:27.432Z,11.27
2022-09-27T02:37:13.436Z,11.29
2022-09-27T02:39:58.858Z,11.18
2022-09-27T02:42:45.442Z,11.32
2022-09-27T02:45:44.989Z,11.42
2022-09-27T02:48:56.852Z,11.40
2022-09-27T02:51:53.937Z,11.40
2022-09-27T02:54:57.675Z,11.41
2022-09-27T02:57:48.774Z,11.37
2022-09-27T03:00:47.213Z,11.37
2022-09-27T03:03:44.575Z,11.36
2022-09-27T03:06:32.553Z,11.30
2022-09-27T03:09:27.952Z,11.34
2022-09-27T03:12:14.032Z,11.27
2022-09-27T03:15:00.345Z,11.26
2022-09-27T03:17:45.909Z,11.23
2022-09-27T03:20:31.594Z,11.28
2022-09-27T03:23:16.969Z,11.36
2022-09-27T03:26:02.851Z,11.29
2022-09-27T03:28:48.311Z,11.36
2022-09-27T03:31:33.590Z,11.33
2022-09-27T03:34:19.214Z,11.42
2022-09-27T03:37:04.748Z,11.28
2022-09-27T03:39:50.165Z,11.35
2022-09-27T03:42:35.773Z,11.38
2022-09-27T03:45:21.764Z,11.41
2022-09-27T03:48:07.457Z,11.35
2022-09-27T03:50:53.093Z,11.45
2022-09-27T03:53:38.465Z,11.36
2022-09-27T03:56:23.712Z,11.44
2022-09-27T03:59:08.976Z,11.41
2022-09-27T04:01:54.675Z,11.34
2022-09-27T04:04:40.439Z,11.22
2022-09-27T04:07:26.018Z,11.34
2022-09-27T04:10:11.528Z,11.39
2022-09-27T04:12:57.295Z,11.25
2022-09-27T04:15:43.343Z,11.29
2022-09-27T04:18:29.475Z,11.28
2022-09-27T04:21:14.906Z,11.32
2022-09-27T04:24:00.607Z,11.22
2022-09-27T04:26:46.887Z,11.27
2022-09-27T04:29:32.343Z,11.21
2022-09-27T04:32:17.985Z,11.25
2022-09-27T04:35:22.637Z,11.38
2022-09-27T04:38:08.178Z,11.24
2022-09-27T04:40:53.859Z,11.38
2022-09-27T04:43:39.335Z,11.48
2022-09-27T04:46:24.908Z,11.40
2022-09-27T04:49:10.334Z,11.44
2022-09-27T04:51:56.439Z,11.40
2022-09-27T04:54:42.281Z,11.37
2022-09-27T04:57:27.782Z,11.47
2022-09-27T05:00:14.097Z,11.59
2022-09-27T05:02:59.712Z,11.45
2022-09-27T05:05:45.246Z,11.46
2022-09-27T05:08:30.817Z,11.47
2022-09-27T05:11:16.182Z,11.46
2022-09-27T05:14:01.830Z,11.39
2022-09-27T05:16:47.759Z,11.43
2022-09-27T05:19:34.265Z,11.29
2022-09-27T05:22:20.097Z,11.45
2022-09-27T05:25:05.786Z,11.29
2022-09-27T05:27:51.606Z,11.41
2022-09-27T05:30:37.093Z,11.51
2022-09-27T05:33:22.752Z,11.39
2022-09-27T05:36:08.870Z,11.27
2022-09-27T05:38:54.341Z,11.51
2022-09-27T05:41:41.131Z,11.48
2022-09-27T05:44:27.005Z,11.50
2022-09-27T05:47:12.561Z,11.64
2022-09-27T05:49:58.184Z,11.72
2022-09-27T05:52:43.913Z,11.76
2022-09-27T05:55:30.103Z,11.83
2022-09-27T05:58:16.218Z,11.65
2022-09-27T06:01:01.837Z,11.78
2022-09-27T06:03:47.735Z,11.88
2022-09-27T06:06:36.851Z,11.94
2022-09-27T06:09:22.568Z,11.86
2022-09-27T06:12:11.755Z,11.83
2022-09-27T06:14:57.316Z,11.99
2022-09-27T06:17:42.917Z,12.15
2022-09-27T06:20:28.273Z,12.17
2022-09-27T06:23:19.460Z,12.46
2022-09-27T06:26:07.929Z,13.10
2022-09-27T06:28:54.794Z,13.21
2022-09-27T06:31:40.359Z,13.43
2022-09-27T06:34:25.697Z,13.61
2022-09-27T06:37:11.530Z,13.45
2022-09-27T06:39:57.288Z,13.27
2022-09-27T06:42:42.683Z,12.94
2022-09-27T06:45:28.457Z,12.94
2022-09-27T06:48:16.176Z,12.90
2022-09-27T06:51:02.468Z,12.77
2022-09-27T06:53:47.999Z,12.68
2022-09-27T06:56:33.648Z,12.55
2022-09-27T06:59:37.385Z,12.52
2022-09-27T07:02:22.967Z,12.51
2022-09-27T07:05:10.270Z,12.40
2022-09-27T07:07:57.807Z,12.37
2022-09-27T07:10:43.076Z,12.22
2022-09-27T07:13:32.658Z,12.19
2022-09-27T07:16:18.998Z,12.18
2022-09-27T07:19:07.607Z,12.05
2022-09-27T07:21:52.785Z,11.82
2022-09-27T07:24:38.303Z,12.07
2022-09-27T07:27:26.425Z,12.13
2022-09-27T07:30:12.903Z,12.29
2022-09-27T07:32:59.848Z,12.36
2022-09-27T07:35:45.637Z,12.39
2022-09-27T07:38:30.968Z,12.94
2022-09-27T07:41:16.931Z,13.06
2022-09-27T07:44:02.744Z,13.16
2022-09-27T07:46:48.060Z,13.40
2022-09-27T07:49:33.806Z,13.95
2022-09-27T07:52:20.739Z,14.44
2022-09-27T07:55:07.062Z,14.39
2022-09-27T07:57:53.600Z,14.13
2022-09-27T08:00:40.929Z,13.64
2022-09-27T08:03:27.081Z,13.40
2022-09-27T08:06:12.723Z,13.32
2022-09-27T08:09:01.670Z,12.95
2022-09-27T08:11:48.416Z,12.97
2022-09-27T08:14:41.001Z,12.95
2022-09-27T08:17:29.051Z,12.70
2022-09-27T08:20:14.551Z,12.59
2022-09-27T08:22:59.868Z,12.61
2022-09-27T08:25:52.394Z,12.36
2022-09-27T08:28:37.833Z,12.15
2022-09-27T08:31:25.378Z,12.05
2022-09-27T08:34:10.894Z,12.28
2022-09-27T08:36:56.245Z,12.31
2022-09-27T08:39:44.461Z,12.34
2022-09-27T08:42:53.194Z,12.65
2022-09-27T08:46:14.989Z,12.60
2022-09-27T08:49:14.154Z,12.74
2022-09-27T08:52:01.039Z,12.76
2022-09-27T08:54:48.041Z,12.85
2022-09-27T08:57:33.366Z,13.05
2022-09-27T09:00:18.717Z,13.30
2022-09-27T09:03:04.064Z,13.46
2022-09-27T09:06:07.721Z,13.11
2022-09-27T09:09:38.778Z,13.25
2022-09-27T09:12:49.887Z,13.49
2022-09-27T09:15:56.728Z,13.93
2022-09-27T09:19:06.821Z,15.27
2022-09-27T09:22:15.519Z,18.04
2022-09-27T09:25:10.481Z,19.03
2022-09-27T09:28:20.492Z,18.89
2022-09-27T09:31:31.644Z,17.90
2022-09-27T09:34:36.914Z,19.09
2022-09-27T09:37:32.725Z,18.85
2022-09-27T09:40:25.053Z,16.90
2022-09-27T09:43:14.015Z,16.39
2022-09-27T09:46:10.383Z,14.99
2022-09-27T09:49:04.917Z,14.18
2022-09-27T09:51:59.069Z,13.52
2022-09-27T09:54:55.782Z,13.46
2022-09-27T09:57:51.149Z,13.00
2022-09-27T10:00:38.936Z,13.46
2022-09-27T10:03:24.605Z,13.62
2022-09-27T10:06:11.837Z,14.61
2022-09-27T10:09:00.785Z,15.82
2022-09-27T10:11:47.225Z,17.56
2022-09-27T10:14:33.567Z,18.50
2022-09-27T10:17:23.069Z,17.36
2022-09-27T10:20:27.112Z,16.80
2022-09-27T10:23:21.399Z,16.21
2022-09-27T10:26:09.039Z,16.10
2022-09-27T10:28:54.455Z,15.74
2022-09-27T10:31:43.594Z,15.59
2022-09-27T10:34:38.461Z,15.37
2022-09-27T10:37:25.034Z,15.38
2022-09-27T10:40:31.806Z,15.21
2022-09-27T10:43:29.440Z,15.95
2022-09-27T10:46:35.646Z,15.57
2022-09-27T10:49:27.665Z,15.47
2022-09-27T10:52:21.611Z,14.52
2022-09-27T10:55:25.665Z,14.67
2022-09-27T10:58:30.939Z,14.75
2022-09-27T11:01:16.413Z,14.60
2022-09-27T11:04:01.830Z,15.00
2022-09-27T11:06:48.902Z,14.78
2022-09-27T11:09:46.646Z,14.95
2022-09-27T11:12:32.303Z,14.83
2022-09-27T11:15:24.304Z,14.36
2022-09-27T11:18:27.837Z,14.83
2022-09-27T11:21:25.589Z,14.79
2022-09-27T11:24:22.984Z,14.47
2022-09-27T11:27:23.509Z,14.44
2022-09-27T11:30:13.368Z,13.93
2022-09-27T11:33:38.822Z,14.65
2022-09-27T11:36:42.633Z,14.86
2022-09-27T11:39:36.547Z,14.75
2022-09-27T11:42:44.983Z,15.14
2022-09-27T11:46:15.457Z,15.25
2022-09-27T11:49:48.031Z,15.13
2022-09-27T11:52:51.279Z,15.06
2022-09-27T11:56:04.901Z,14.85
2022-09-27T11:58:53.318Z,14.98
2022-09-27T12:01:44.374Z,15.40
2022-09-27T12:04:42.477Z,15.89
2022-09-27T12:07:53.006Z,16.22
2022-09-27T12:10:41.805Z,15.79
2022-09-27T12:13:34.677Z,16.09
2022-09-27T12:16:23.262Z,16.17
2022-09-27T12:19:18.098Z,15.48
2022-09-27T12:22:12.719Z,14.33
2022-09-27T12:24:58.361Z,14.33
2022-09-27T12:27:49.504Z,13.97
2022-09-27T12:30:40.256Z,13.54
2022-09-27T12:33:39.012Z,13.33
2022-09-27T12:36:31.999Z,13.75
2022-09-27T12:39:44.671Z,13.56
2022-09-27T12:42:50.123Z,13.62
2022-09-27T12:45:49.413Z,13.98
2022-09-27T12:49:09.828Z,13.51
2022-09-27T12:52:09.156Z,13.47
2022-09-27T12:55:08.948Z,13.64
2022-09-27T12:58:23.512Z,13.59
2022-09-27T13:01:49.912Z,13.99
2022-09-27T13:05:10.616Z,14.50
2022-09-27T13:08:22.911Z,14.71
2022-09-27T13:11:35.239Z,14.57
2022-09-27T13:14:25.287Z,14.64
2022-09-27T13:17:42.974Z,14.97
2022-09-27T13:20:31.287Z,14.92
2022-09-27T13:23:19.138Z,14.84
2022-09-27T13:26:07.827Z,14.94
2022-09-27T13:28:58.176Z,14.95
2022-09-27T13:32:03.821Z,14.53
2022-09-27T13:34:52.666Z,13.97
2022-09-27T13:37:47.414Z,13.71
2022-09-27T13:40:36.647Z,14.02
2022-09-27T13:43:41.474Z,14.26
2022-09-27T13:46:30.336Z,13.86
2022-09-27T13:49:21.963Z,13.81
2022-09-27T13:52:27.513Z,13.60
2022-09-27T13:55:41.055Z,13.66
2022-09-27T13:58:54.783Z,13.67
2022-09-27T14:01:48.290Z,13.79
2022-09-27T14:04:43.760Z,14.05
2022-09-27T14:07:42.677Z,14.14
2022-09-27T14:10:30.585Z,13.92
2022-09-27T14:13:20.375Z,14.04
2022-09-27T14:16:07.295Z,13.76
2022-09-27T14:19:00.315Z,13.94
2022-09-27T14:21:49.261Z,13.88
2022-09-27T14:24:38.353Z,14.02
2022-09-27T14:27:27.655Z,13.75
2022-09-27T14:30:18.193Z,13.30
2022-09-27T14:33:05.170Z,13.41
2022-09-27T14:36:11.621Z,13.49
2022-09-27T14:38:57.914Z,14.01
2022-09-27T14:41:44.593Z,13.78
2022-09-27T14:44:31.526Z,13.59
2022-09-27T14:47:25.464Z,13.11
2022-09-27T14:50:25.306Z,12.97
2022-09-27T14:53:25.145Z,12.74
2022-09-27T14:56:19.145Z,12.66
2022-09-27T14:59:14.102Z,12.69
2022-09-27T15:02:03.674Z,12.72
2022-09-27T15:04:51.446Z,12.99
2022-09-27T15:07:37.078Z,13.32
2022-09-27T15:10:28.505Z,13.12
2022-09-27T15:13:18.645Z,13.01
2022-09-27T15:16:19.411Z,12.95
2022-09-27T15:19:17.947Z,12.88
2022-09-27T15:22:24.347Z,12.97
2022-09-27T15:25:22.295Z,12.88
2022-09-27T15:28:11.418Z,12.62
2022-09-27T15:30:58.512Z,12.78
2022-09-27T15:33:54.630Z,12.46
2022-09-27T15:36:53.527Z,12.36
2022-09-27T15:39:41.937Z,12.40
2022-09-27T15:42:27.875Z,12.09
2022-09-27T15:45:39.441Z,12.11
2022-09-27T15:48:25.318Z,12.25
2022-09-27T15:51:40.315Z,12.13
2022-09-27T15:54:30.953Z,12.00
2022-09-27T15:57:16.943Z,11.74
2022-09-27T16:00:03.775Z,11.76
2022-09-27T16:02:50.037Z,11.90
2022-09-27T16:05:35.343Z,11.94
2022-09-27T16:08:21.855Z,12.02
2022-09-27T16:11:15.257Z,11.94
2022-09-27T16:14:01.221Z,11.78
2022-09-27T16:16:50.741Z,11.90
2022-09-27T16:19:37.229Z,11.76
2022-09-27T16:22:24.290Z,11.78
2022-09-27T16:25:10.225Z,11.64
2022-09-27T16:28:00.083Z,11.69
2022-09-27T16:30:46.108Z,11.51
2022-09-27T16:33:33.538Z,11.58
2022-09-27T16:36:20.585Z,11.60
2022-09-27T16:39:10.358Z,11.57
2022-09-27T16:41:56.201Z,11.57
2022-09-27T16:44:42.477Z,11.57
2022-09-27T16:47:29.471Z,11.49
2022-09-27T16:50:34.488Z,11.37
2022-09-27T16:53:20.469Z,11.39
2022-09-27T16:56:06.373Z,11.46
2022-09-27T16:58:54.059Z,11.43
2022-09-27T17:01:39.708Z,11.07
2022-09-27T17:04:27.816Z,11.08
2022-09-27T17:07:13.288Z,11.03
2022-09-27T17:09:59.748Z,11.04
2022-09-27T17:12:49.776Z,11.04
2022-09-27T17:15:37.584Z,11.03
2022-09-27T17:18:24.253Z,10.96
2022-09-27T17:21:10.079Z,10.97
2022-09-27T17:23:55.549Z,10.85
2022-09-27T17:26:41.797Z,10.75
2022-09-27T17:29:28.046Z,10.69
2022-09-27T17:32:14.113Z,10.68
2022-09-27T17:35:00.059Z,10.62
2022-09-27T17:37:51.157Z,10.63
2022-09-27T17:40:37.310Z,10.51
2022-09-27T17:43:24.351Z,10.59
2022-09-27T17:46:10.213Z,10.46
2022-09-27T17:49:15.347Z,10.54
2022-09-27T17:52:01.264Z,10.59
2022-09-27T17:54:47.400Z,10.45
2022-09-27T17:57:33.002Z,10.38
2022-09-27T18:00:20.706Z,10.49
2022-09-27T18:03:08.056Z,10.36
2022-09-27T18:05:53.891Z,10.50
2022-09-27T18:08:40.924Z,10.38
2022-09-27T18:11:29.858Z,10.34
2022-09-27T18:14:16.745Z,10.57
2022-09-27T18:17:02.798Z,10.34
2022-09-27T18:19:48.712Z,10.40
2022-09-27T18:22:36.282Z,10.40
2022-09-27T18:25:25.340Z,10.56
2022-09-27T18:28:11.282Z,10.53
2022-09-27T18:31:06.458Z,10.35
2022-09-27T18:33:52.266Z,10.35
2022-09-27T18:36:41.010Z,10.42
2022-09-27T18:39:27.726Z,10.31
2022-09-27T18:42:13.380Z,10.38
2022-09-27T18:44:59.139Z,10.32
2022-09-27T18:47:44.886Z,10.50
2022-09-27T18:50:34.949Z,10.49
2022-09-27T18:53:20.382Z,10.43
2022-09-27T18:56:11.400Z,10.39
2022-09-27T18:58:58.367Z,10.40
2022-09-27T19:01:47.548Z,10.37
2022-09-27T19:04:33.751Z,10.37
2022-09-27T19:07:19.016Z,10.29
2022-09-27T19:10:05.095Z,10.34
2022-09-27T19:12:51.461Z,10.26
2022-09-27T19:15:37.190Z,10.31
2022-09-27T19:18:25.121Z,10.26
2022-09-27T19:21:15.667Z,10.26
2022-09-27T19:24:01.553Z,10.11
2022-09-27T19:34:47.744Z,10.13
2022-09-27T19:37:33.161Z,10.13
2022-09-27T19:40:18.735Z,10.01
2022-09-27T19:43:04.141Z,9.92
2022-09-27T19:45:49.630Z,9.88
2022-09-27T19:48:38.548Z,9.98
2022-09-27T19:51:26.127Z,10.00
2022-09-27T19:54:11.894Z,10.13
2022-09-27T19:56:57.172Z,10.04
2022-09-27T19:59:43.040Z,9.92
2022-09-27T20:02:28.534Z,9.92
2022-09-27T20:05:13.892Z,10.03
2022-09-27T20:07:59.531Z,9.88
2022-09-27T20:10:53.145Z,9.95
2022-09-27T20:13:39.627Z,9.76
2022-09-27T20:16:26.730Z,9.89
2022-09-27T20:19:12.320Z,10.04
2022-09-27T20:21:57.725Z,9.89
2022-09-27T20:24:43.301Z,10.01
2022-09-27T20:27:28.804Z,10.02
2022-09-27T20:30:15.232Z,10.01
2022-09-27T20:33:19.382Z,10.04
2022-09-27T20:36:05.012Z,10.13
2022-09-27T20:39:01.226Z,10.11
2022-09-27T20:41:47.724Z,9.95
2022-09-27T20:44:33.398Z,9.93
2022-09-27T20:47:18.851Z,10.10
2022-09-27T20:50:04.543Z,10.07
2022-09-27T20:52:50.701Z,10.04
2022-09-27T20:55:36.729Z,10.00
2022-09-27T20:58:23.183Z,10.07
2022-09-27T21:01:09.043Z,10.17
2022-09-27T21:03:59.041Z,10.09
2022-09-27T21:06:44.742Z,10.27
2022-09-27T21:09:30.426Z,10.09
2022-09-27T21:12:16.281Z,10.09
2022-09-27T21:15:01.821Z,10.07
2022-09-27T21:17:47.090Z,10.01
2022-09-27T21:20:32.810Z,9.97
2022-09-27T21:23:18.458Z,9.86
2022-09-27T21:26:09.524Z,10.01
2022-09-27T21:28:56.963Z,9.84
2022-09-27T21:31:42.778Z,9.87
2022-09-27T21:34:28.370Z,9.77
2022-09-27T21:37:13.948Z,9.83
2022-09-27T21:40:00.822Z,9.87
2022-09-27T21:42:53.308Z,9.93
2022-09-27T21:45:41.083Z,9.90
2022-09-27T21:48:26.391Z,9.94
2022-09-27T21:51:13.415Z,10.02
2022-09-27T21:54:04.007Z,10.03
2022-09-27T21:56:49.569Z,9.93
2022-09-27T21:59:34.921Z,10.01
2022-09-27T22:02:20.579Z,10.02
2022-09-27T22:05:06.470Z,10.06
2022-09-27T22:07:51.759Z,10.08
2022-09-27T22:10:37.140Z,10.00
2022-09-27T22:13:22.669Z,9.95
2022-09-27T22:16:10.728Z,10.07
2022-09-27T22:18:57.859Z,9.97
2022-09-27T22:21:43.398Z,9.94
2022-09-27T22:24:29.052Z,10.03
2022-09-27T22:27:14.844Z,9.94
2022-09-27T22:30:00.259Z,9.95
2022-09-27T22:32:45.906Z,9.89
2022-09-27T22:35:31.790Z,9.83
2022-09-27T22:38:17.127Z,9.79
2022-09-27T22:41:03.330Z,9.95
2022-09-27T22:43:49.038Z,9.82
2022-09-27T22:46:35.367Z,9.71
2022-09-27T22:49:20.898Z,9.66
2022-09-27T22:52:06.072Z,9.66
2022-09-27T22:54:52.185Z,9.60
2022-09-27T22:57:37.459Z,9.66
2022-09-27T23:00:22.755Z,9.72
2022-09-27T23:03:08.316Z,9.74
2022-09-27T23:05:54.333Z,9.77
2022-09-27T23:08:39.703Z,9.58
2022-09-27T23:11:25.088Z,9.77
2022-09-27T23:14:11.199Z,9.65
2022-09-27T23:16:56.614Z,9.67
2022-09-27T23:19:42.455Z,9.70
2022-09-27T23:22:28.516Z,9.75
2022-09-27T23:25:14.140Z,9.60
2022-09-27T23:27:59.892Z,9.64
2022-09-27T23:30:45.639Z,9.61
2022-09-27T23:33:31.159Z,9.57
2022-09-27T23:36:18.801Z,9.63
2022-09-27T23:39:04.044Z,9.48
2022-09-27T23:41:49.564Z,9.55
2022-09-27T23:44:34.740Z,9.54
2022-09-27T23:47:20.363Z,9.54
2022-09-27T23:50:06.349Z,9.62
2022-09-27T23:52:52.033Z,9.57
2022-09-27T23:55:37.253Z,9.46
2022-09-27T23:58:22.934Z,9.50
